createdAt,value
2023-04-16T00:02:44.376Z,9.4
2023-04-16T00:07:44.239Z,9.6
2023-04-16T00:12:44.211Z,9.4
2023-04-16T00:17:44.314Z,9.7
2023-04-16T00:22:44.236Z,10.0
2023-04-16T00:27:44.254Z,9.6
2023-04-16T00:37:44.253Z,9.7
2023-04-16T00:42:44.234Z,9.8
2023-04-16T00:47:44.315Z,9.6
2023-04-16T00:57:44.263Z,9.7
2023-04-16T01:02:44.401Z,9.4
2023-04-16T01:07:44.278Z,9.7
2023-04-16T01:12:44.250Z,9.9
2023-04-16T01:17:44.302Z,9.8
2023-04-16T01:22:44.286Z,10.0
2023-04-16T01:37:44.252Z,10.2
2023-04-16T01:42:44.273Z,10.0
2023-04-16T01:47:44.322Z,9.9
2023-04-16T01:57:44.252Z,10.0
2023-04-16T02:02:44.519Z,10.1
2023-04-16T02:07:44.263Z,10.0
2023-04-16T02:12:44.254Z,10.1
2023-04-16T02:22:44.273Z,9.8
2023-04-16T02:42:44.293Z,9.9
2023-04-16T02:47:44.291Z,10.1
2023-04-16T02:52:44.297Z,10.0
2023-04-16T02:57:44.284Z,9.9
2023-04-16T03:22:44.299Z,10.0
2023-04-16T03:27:44.288Z,10.1
2023-04-16T03:32:44.294Z,10.0
2023-04-16T03:37:44.297Z,10.1
2023-04-16T03:42:44.305Z,10.0
2023-04-16T03:52:44.283Z,10.2
2023-04-16T03:57:44.318Z,10.0
2023-04-16T04:02:44.531Z,10.2
2023-04-16T04:07:44.310Z,9.8
2023-04-16T04:12:44.345Z,9.9
2023-04-16T04:22:44.311Z,9.8
2023-04-16T04:27:44.299Z,9.9
2023-04-16T04:47:44.331Z,9.8
2023-04-16T04:52:44.349Z,9.9
2023-04-16T05:02:44.432Z,9.8
2023-04-16T05:07:44.332Z,9.9
2023-04-16T05:12:44.799Z,10.1
2023-04-16T05:17:44.390Z,10.0
2023-04-16T05:22:44.339Z,9.9
2023-04-16T05:27:44.340Z,10.0
2023-04-16T05:32:44.376Z,10.2
2023-04-16T05:37:44.335Z,10.1
2023-04-16T05:42:44.311Z,10.2
2023-04-16T05:47:44.375Z,10.3
2023-04-16T05:52:44.322Z,10.4
2023-04-16T05:57:44.362Z,10.8
2023-04-16T06:02:44.512Z,10.7
2023-04-16T06:07:44.334Z,10.8
2023-04-16T06:12:44.361Z,10.7
2023-04-16T06:17:44.377Z,10.6
2023-04-16T06:22:44.335Z,10.7
2023-04-16T06:27:44.354Z,10.8
2023-04-16T06:32:44.446Z,10.6
2023-04-16T06:37:44.353Z,10.8
2023-04-16T06:42:45.685Z,10.9
2023-04-16T06:47:44.395Z,11.1
2023-04-16T06:52:44.337Z,11.2
2023-04-16T06:57:44.368Z,10.8
2023-04-16T07:07:44.393Z,10.9
2023-04-16T07:12:44.348Z,10.6
2023-04-16T07:17:44.397Z,10.7
2023-04-16T07:22:44.358Z,10.8
2023-04-16T07:27:44.388Z,11.2
2023-04-16T07:32:44.379Z,11.4
2023-04-16T07:37:44.382Z,11.5
2023-04-16T07:42:44.349Z,11.6
2023-04-16T07:47:44.399Z,11.8
2023-04-16T07:52:44.378Z,11.7
2023-04-16T07:57:44.400Z,11.8
2023-04-16T08:02:44.605Z,12.1
2023-04-16T08:12:44.405Z,12.2
2023-04-16T08:22:44.395Z,12.5
2023-04-16T08:27:44.405Z,12.4
2023-04-16T08:32:44.472Z,12.6
2023-04-16T08:47:44.410Z,12.8
2023-04-16T09:02:44.704Z,13.0
2023-04-16T09:07:44.409Z,12.9
2023-04-16T09:12:44.390Z,13.3
2023-04-16T09:17:44.504Z,13.5
2023-04-16T09:22:44.383Z,13.3
2023-04-16T09:27:44.419Z,13.5
2023-04-16T09:32:44.427Z,14.4
2023-04-16T09:42:44.394Z,15.0
2023-04-16T09:47:44.461Z,16.7
2023-04-16T09:52:44.404Z,17.4
2023-04-16T09:57:44.425Z,15.2
2023-04-16T10:03:00.717Z,15.8
2023-04-16T10:07:44.421Z,18.3
2023-04-16T10:12:44.431Z,17.2
2023-04-16T10:17:44.491Z,17.6
2023-04-16T10:22:44.412Z,18.6
2023-04-16T10:27:44.421Z,18.3
2023-04-16T10:32:44.473Z,16.9
2023-04-16T10:37:44.415Z,16.8
2023-04-16T10:42:44.435Z,17.9
2023-04-16T10:47:44.430Z,17.3
2023-04-16T10:52:44.424Z,18.4
2023-04-16T10:57:44.422Z,19.6
2023-04-16T11:02:44.627Z,20.3
2023-04-16T11:07:44.414Z,24.4
2023-04-16T11:12:44.447Z,21.8
2023-04-16T11:17:44.447Z,19.8
2023-04-16T11:22:44.433Z,21.5
2023-04-16T11:27:44.426Z,22.4
2023-04-16T11:32:44.482Z,20.7
2023-04-16T11:37:44.438Z,17.7
2023-04-16T11:42:44.544Z,17.8
2023-04-16T11:47:44.488Z,18.3
2023-04-16T11:52:44.451Z,16.5
2023-04-16T12:02:44.651Z,16.4
2023-04-16T12:07:44.439Z,16.8
2023-04-16T12:12:44.460Z,17.1
2023-04-16T12:17:44.532Z,16.8
2023-04-16T12:22:44.474Z,17.7
2023-04-16T12:27:44.463Z,18.2
2023-04-16T12:32:44.550Z,18.0
2023-04-16T12:37:44.484Z,17.5
2023-04-16T12:42:44.447Z,17.1
2023-04-16T12:47:44.609Z,17.6
2023-04-16T12:52:44.459Z,17.4
2023-04-16T12:57:44.479Z,16.6
2023-04-16T13:02:44.595Z,15.8
2023-04-16T13:07:44.474Z,16.4
2023-04-16T13:12:44.483Z,17.4
2023-04-16T13:17:44.555Z,17.5
2023-04-16T13:22:44.474Z,19.9
2023-04-16T13:27:44.495Z,18.1
2023-04-16T13:32:44.513Z,16.9
2023-04-16T13:37:44.507Z,17.4
2023-04-16T13:42:44.469Z,17.7
2023-04-16T13:47:44.516Z,18.2
2023-04-16T13:52:44.484Z,18.6
2023-04-16T13:57:44.490Z,18.7
2023-04-16T14:02:44.560Z,19.3
2023-04-16T14:07:44.499Z,22.6
2023-04-16T14:12:44.499Z,19.9
2023-04-16T14:17:44.575Z,20.6
2023-04-16T14:22:44.475Z,20.4
2023-04-16T14:27:44.516Z,21.1
2023-04-16T14:32:44.519Z,22.8
2023-04-16T14:37:44.510Z,22.5
2023-04-16T14:42:44.501Z,21.4
2023-04-16T14:47:44.553Z,19.7
2023-04-16T14:52:44.502Z,19.0
2023-04-16T14:57:44.536Z,17.9
2023-04-16T15:02:44.684Z,18.7
2023-04-16T15:07:44.511Z,17.0
2023-04-16T15:12:44.508Z,16.5
2023-04-16T15:17:44.581Z,16.7
2023-04-16T15:22:44.513Z,17.7
2023-04-16T15:27:44.518Z,18.8
2023-04-16T15:32:44.575Z,18.1
2023-04-16T15:37:44.536Z,17.6
2023-04-16T15:42:44.532Z,17.3
2023-04-16T15:47:44.557Z,17.0
2023-04-16T15:52:44.545Z,16.5
2023-04-16T15:57:44.546Z,15.6
2023-04-16T16:07:44.552Z,16.2
2023-04-16T16:12:44.531Z,16.5
2023-04-16T16:17:44.586Z,16.9
2023-04-16T16:22:44.530Z,17.1
2023-04-16T16:32:44.577Z,16.8
2023-04-16T16:37:44.547Z,16.3
2023-04-16T16:42:44.581Z,16.4
2023-04-16T16:47:44.602Z,16.7
2023-04-16T16:52:44.536Z,16.3
2023-04-16T16:57:44.548Z,16.1
2023-04-16T17:02:44.777Z,15.4
2023-04-16T17:07:44.586Z,15.7
2023-04-16T17:12:44.576Z,16.0
2023-04-16T17:17:44.603Z,14.6
2023-04-16T17:22:44.569Z,14.1
2023-04-16T17:27:44.618Z,13.9
2023-04-16T17:32:44.690Z,14.1
2023-04-16T17:42:44.575Z,13.4
2023-04-16T17:47:44.694Z,13.0
2023-04-16T17:52:44.601Z,12.6
2023-04-16T18:02:44.646Z,12.2
2023-04-16T18:07:44.616Z,12.3
2023-04-16T18:12:44.576Z,12.0
2023-04-16T18:17:44.637Z,12.1
2023-04-16T18:22:44.632Z,11.8
2023-04-16T18:33:04.353Z,11.6
2023-04-16T18:37:44.570Z,11.3
2023-04-16T18:47:44.647Z,11.0
2023-04-16T18:52:44.674Z,11.3
2023-04-16T18:57:44.608Z,11.2
2023-04-16T19:07:44.627Z,11.4
2023-04-16T19:12:44.597Z,11.6
2023-04-16T19:17:44.662Z,11.4
2023-04-16T19:22:44.595Z,11.7
2023-04-16T19:27:44.587Z,11.5
2023-04-16T19:32:44.698Z,11.6
2023-04-16T19:37:44.607Z,11.7
2023-04-16T19:42:44.667Z,11.6
2023-04-16T19:47:44.673Z,11.4
2023-04-16T19:52:45.785Z,11.6
2023-04-16T19:57:44.622Z,11.8
2023-04-16T20:02:44.711Z,11.3
2023-04-16T20:07:44.634Z,11.1
2023-04-16T20:12:44.620Z,11.4
2023-04-16T20:17:44.685Z,11.6
2023-04-16T20:22:44.621Z,11.5
2023-04-16T20:37:44.646Z,11.3
2023-04-16T20:42:44.616Z,11.4
2023-04-16T20:47:44.686Z,11.5
2023-04-16T20:57:44.632Z,11.4
2023-04-16T21:02:44.727Z,11.2
2023-04-16T21:12:44.628Z,11.4
2023-04-16T21:17:44.706Z,11.3
2023-04-16T21:22:44.629Z,11.5
2023-04-16T21:27:44.661Z,11.3
2023-04-16T21:32:44.701Z,11.6
2023-04-16T21:47:44.722Z,11.3
2023-04-16T21:52:44.645Z,11.4
2023-04-16T22:17:44.690Z,11.1
2023-04-16T22:27:44.660Z,10.9
2023-04-16T22:32:44.693Z,10.7
2023-04-16T22:37:44.668Z,10.4
2023-04-16T22:47:44.690Z,10.3
2023-04-16T22:52:44.670Z,10.4
2023-04-16T23:02:44.826Z,10.5
2023-04-16T23:12:44.692Z,10.8
2023-04-16T23:17:44.725Z,10.7
2023-04-16T23:22:44.684Z,11.0
2023-04-16T23:32:44.763Z,10.9
2023-04-16T23:47:44.794Z,11.0
2023-04-16T23:52:44.698Z,10.7
